createdAt,value
2022-07-27T00:01:06.730Z,57.70
2022-07-27T00:03:35.984Z,57.94
2022-07-27T00:06:03.815Z,57.85
2022-07-27T00:08:31.693Z,58.08
2022-07-27T00:10:59.469Z,58.08
2022-07-27T00:13:27.353Z,58.05
2022-07-27T00:15:55.247Z,57.93
2022-07-27T00:18:22.954Z,58.07
2022-07-27T00:20:52.037Z,57.97
2022-07-27T00:23:19.761Z,58.02
2022-07-27T00:25:47.680Z,58.16
2022-07-27T00:28:15.495Z,58.36
2022-07-27T00:30:43.258Z,58.75
2022-07-27T00:33:11.001Z,58.59
2022-07-27T00:35:45.256Z,58.57
2022-07-27T00:38:14.722Z,58.45
2022-07-27T00:40:42.463Z,58.38
2022-07-27T00:43:10.298Z,58.52
2022-07-27T00:45:38.889Z,58.59
2022-07-27T00:48:07.369Z,58.41
2022-07-27T00:50:35.949Z,58.54
2022-07-27T00:53:05.977Z,58.46
2022-07-27T00:55:35.711Z,58.81
2022-07-27T00:58:05.838Z,58.52
2022-07-27T01:00:33.600Z,58.76
2022-07-27T01:03:02.666Z,58.81
2022-07-27T01:05:43.122Z,59.21
2022-07-27T01:08:13.563Z,59.27
2022-07-27T01:10:44.524Z,59.25
2022-07-27T01:13:13.550Z,59.27
2022-07-27T01:15:42.616Z,59.50
2022-07-27T01:18:13.720Z,59.87
2022-07-27T01:20:42.186Z,59.89
2022-07-27T01:23:11.408Z,60.03
2022-07-27T01:25:42.431Z,60.22
2022-07-27T01:28:10.546Z,60.32
2022-07-27T01:30:38.370Z,60.19
2022-07-27T01:33:09.148Z,60.23
2022-07-27T01:35:37.931Z,60.52
2022-07-27T01:38:06.271Z,60.69
2022-07-27T01:40:36.812Z,60.70
2022-07-27T01:43:06.116Z,60.70
2022-07-27T01:45:33.958Z,60.78
2022-07-27T01:48:01.898Z,60.78
2022-07-27T01:50:29.911Z,60.70
2022-07-27T01:52:57.639Z,60.97
2022-07-27T01:55:25.399Z,61.01
2022-07-27T01:57:54.547Z,61.07
2022-07-27T02:00:22.318Z,61.33
2022-07-27T02:02:50.083Z,61.70
2022-07-27T02:05:17.886Z,61.67
2022-07-27T02:07:45.608Z,61.86
2022-07-27T02:10:13.487Z,61.98
2022-07-27T02:12:40.229Z,61.94
2022-07-27T02:15:15.186Z,62.06
2022-07-27T02:17:43.718Z,62.46
2022-07-27T02:20:14.208Z,62.42
2022-07-27T02:22:42.291Z,62.44
2022-07-27T02:25:11.797Z,62.82
2022-07-27T02:27:40.218Z,62.70
2022-07-27T02:30:11.365Z,62.66
2022-07-27T02:32:39.156Z,63.03
2022-07-27T02:35:18.872Z,63.05
2022-07-27T02:37:47.892Z,63.26
2022-07-27T02:40:17.118Z,62.99
2022-07-27T02:42:45.417Z,63.17
2022-07-27T02:45:14.704Z,63.38
2022-07-27T02:47:42.662Z,63.17
2022-07-27T02:50:10.934Z,63.59
2022-07-27T02:52:38.950Z,63.69
2022-07-27T02:55:08.333Z,63.96
2022-07-27T02:57:37.965Z,63.77
2022-07-27T03:00:06.952Z,64.20
2022-07-27T03:02:36.616Z,64.65
2022-07-27T03:05:05.655Z,64.46
2022-07-27T03:07:33.826Z,64.47
2022-07-27T03:10:01.956Z,64.39
2022-07-27T03:12:29.902Z,64.45
2022-07-27T03:14:58.309Z,64.64
2022-07-27T03:17:26.179Z,64.72
2022-07-27T03:19:55.268Z,64.91
2022-07-27T03:22:23.147Z,64.76
2022-07-27T03:24:51.046Z,64.93
2022-07-27T03:27:18.885Z,65.31
2022-07-27T03:29:46.796Z,65.47
2022-07-27T03:32:14.512Z,65.33
2022-07-27T03:34:42.272Z,65.12
2022-07-27T03:37:11.480Z,65.35
2022-07-27T03:39:39.186Z,65.61
2022-07-27T03:42:07.281Z,65.84
2022-07-27T03:44:35.006Z,65.82
2022-07-27T03:47:02.775Z,65.79
2022-07-27T03:49:30.567Z,65.72
2022-07-27T03:51:58.568Z,65.86
2022-07-27T03:54:27.813Z,65.81
2022-07-27T03:56:55.590Z,65.82
2022-07-27T03:59:23.322Z,65.87
2022-07-27T04:01:51.065Z,66.12
2022-07-27T04:04:18.780Z,66.45
2022-07-27T04:06:46.554Z,66.39
2022-07-27T04:09:16.933Z,66.79
2022-07-27T04:11:50.883Z,66.67
2022-07-27T04:14:19.791Z,66.61
2022-07-27T04:16:48.146Z,66.73
2022-07-27T04:19:16.274Z,67.14
2022-07-27T04:21:44.286Z,67.35
2022-07-27T04:24:12.014Z,67.19
2022-07-27T04:26:39.839Z,67.25
2022-07-27T04:29:09.061Z,67.06
2022-07-27T04:31:37.166Z,66.79
2022-07-27T04:34:04.938Z,67.15
2022-07-27T04:36:32.677Z,67.33
2022-07-27T04:39:00.388Z,67.47
2022-07-27T04:41:30.580Z,67.35
2022-07-27T04:43:58.643Z,67.12
2022-07-27T04:46:29.504Z,67.26
2022-07-27T04:48:57.822Z,66.98
2022-07-27T04:51:25.662Z,67.13
2022-07-27T04:53:58.598Z,67.28
2022-07-27T04:56:27.294Z,67.01
2022-07-27T04:58:55.544Z,67.18
2022-07-27T05:01:25.464Z,66.90
2022-07-27T05:03:54.975Z,67.07
2022-07-27T05:06:23.021Z,67.18
2022-07-27T05:08:50.820Z,67.04
2022-07-27T05:11:18.537Z,67.06
2022-07-27T05:13:46.309Z,67.74
2022-07-27T05:16:14.281Z,67.80
2022-07-27T05:18:42.087Z,67.95
2022-07-27T05:21:11.231Z,67.88
2022-07-27T05:23:38.961Z,68.14
2022-07-27T05:26:06.650Z,67.84
2022-07-27T05:28:34.435Z,66.98
2022-07-27T05:31:02.531Z,65.81
2022-07-27T05:33:30.336Z,65.90
2022-07-27T05:35:58.221Z,64.79
2022-07-27T05:38:27.308Z,64.01
2022-07-27T05:40:55.051Z,63.85
2022-07-27T05:43:22.787Z,63.18
2022-07-27T05:45:50.627Z,63.16
2022-07-27T05:48:18.580Z,63.03
2022-07-27T05:50:46.293Z,63.12
2022-07-27T05:53:13.984Z,63.19
2022-07-27T05:55:57.819Z,63.56
2022-07-27T05:58:26.708Z,62.76
2022-07-27T06:00:54.488Z,62.68
2022-07-27T06:03:22.590Z,62.75
2022-07-27T06:05:50.452Z,62.48
2022-07-27T06:08:17.437Z,62.38
2022-07-27T06:10:47.077Z,61.70
2022-07-27T06:13:14.799Z,61.71
2022-07-27T06:15:42.557Z,61.41
2022-07-27T06:18:18.040Z,61.92
2022-07-27T06:20:46.866Z,61.76
2022-07-27T06:23:14.641Z,61.14
2022-07-27T06:25:42.416Z,61.20
2022-07-27T06:28:11.485Z,61.37
2022-07-27T06:30:39.219Z,60.45
2022-07-27T06:33:07.082Z,60.20
2022-07-27T06:35:38.997Z,60.19
2022-07-27T06:38:07.057Z,60.37
2022-07-27T06:40:34.814Z,60.29
2022-07-27T06:43:02.867Z,59.83
2022-07-27T06:45:32.229Z,59.92
2022-07-27T06:47:59.926Z,59.02
2022-07-27T06:50:27.961Z,58.79
2022-07-27T06:52:55.688Z,59.20
2022-07-27T06:55:23.434Z,58.90
2022-07-27T06:57:51.148Z,59.37
2022-07-27T07:00:18.939Z,58.48
2022-07-27T07:02:59.797Z,58.91
2022-07-27T07:05:28.104Z,58.05
2022-07-27T07:07:56.401Z,56.81
2022-07-27T07:10:26.014Z,57.22
2022-07-27T07:12:56.503Z,55.00
2022-07-27T07:15:26.250Z,56.68
2022-07-27T07:17:55.884Z,56.50
2022-07-27T07:20:24.010Z,56.46
2022-07-27T07:22:52.008Z,56.35
2022-07-27T07:25:20.040Z,55.82
2022-07-27T07:27:47.820Z,55.27
2022-07-27T07:30:15.853Z,55.06
2022-07-27T07:32:43.612Z,55.72
2022-07-27T07:35:12.861Z,55.23
2022-07-27T07:37:40.951Z,55.07
2022-07-27T07:40:40.630Z,54.17
2022-07-27T07:43:00.876Z,54.11
2022-07-27T07:45:30.227Z,54.16
2022-07-27T07:47:58.769Z,53.79
2022-07-27T07:50:27.910Z,53.49
2022-07-27T07:52:55.707Z,52.15
2022-07-27T07:55:25.175Z,52.51
2022-07-27T07:57:53.574Z,52.58
2022-07-27T08:00:22.411Z,51.64
2022-07-27T08:02:52.522Z,51.74
2022-07-27T08:05:20.998Z,51.15
2022-07-27T08:07:51.472Z,50.38
2022-07-27T08:10:21.282Z,50.83
2022-07-27T08:12:51.022Z,51.45
2022-07-27T08:15:19.061Z,51.21
2022-07-27T08:17:47.564Z,50.67
2022-07-27T08:20:17.164Z,50.70
2022-07-27T08:22:46.365Z,50.88
2022-07-27T08:25:15.719Z,50.32
2022-07-27T08:27:43.481Z,50.57
2022-07-27T08:30:15.538Z,50.59
2022-07-27T08:32:51.975Z,50.74
2022-07-27T08:35:20.815Z,51.76
2022-07-27T08:37:48.946Z,51.18
2022-07-27T08:43:06.635Z,50.39
2022-07-27T08:45:35.146Z,50.27
2022-07-27T08:48:03.598Z,50.43
2022-07-27T08:50:32.730Z,48.68
2022-07-27T08:53:03.855Z,48.82
2022-07-27T08:55:34.787Z,48.98
2022-07-27T08:58:03.900Z,48.68
2022-07-27T09:00:33.066Z,47.19
2022-07-27T09:03:01.019Z,47.04
2022-07-27T09:05:37.010Z,47.07
2022-07-27T09:08:13.336Z,46.83
2022-07-27T09:10:42.720Z,45.93
2022-07-27T09:13:25.243Z,46.37
2022-07-27T09:18:41.969Z,45.80
2022-07-27T09:21:15.239Z,45.91
2022-07-27T09:23:44.821Z,44.08
2022-07-27T09:26:31.139Z,44.99
2022-07-27T09:29:03.256Z,44.12
2022-07-27T09:31:31.476Z,45.10
2022-07-27T09:34:02.062Z,43.63
2022-07-27T09:36:31.472Z,42.82
2022-07-27T09:39:03.235Z,43.22
2022-07-27T09:41:43.270Z,42.80
2022-07-27T09:46:59.871Z,43.03
2022-07-27T09:49:30.009Z,42.63
2022-07-27T09:52:00.992Z,42.16
2022-07-27T09:54:42.108Z,42.16
2022-07-27T09:57:11.811Z,42.81
2022-07-27T09:59:39.564Z,43.41
2022-07-27T10:02:08.067Z,43.04
2022-07-27T10:04:35.954Z,42.86
2022-07-27T10:07:06.292Z,42.17
2022-07-27T10:09:37.272Z,41.02
2022-07-27T10:12:05.520Z,40.64
2022-07-27T10:14:35.279Z,40.00
2022-07-27T10:17:04.167Z,40.42
2022-07-27T10:19:40.664Z,41.23
2022-07-27T10:22:08.491Z,40.78
2022-07-27T10:24:37.032Z,40.37
2022-07-27T10:27:20.584Z,39.63
2022-07-27T10:29:51.773Z,38.81
2022-07-27T10:32:26.481Z,40.13
2022-07-27T10:34:54.766Z,38.91
2022-07-27T10:37:26.345Z,38.01
2022-07-27T10:40:17.090Z,36.60
2022-07-27T10:42:47.977Z,37.05
2022-07-27T10:45:21.009Z,36.49
2022-07-27T10:47:51.126Z,37.16
2022-07-27T10:50:29.752Z,37.70
2022-07-27T10:52:59.632Z,37.46
2022-07-27T10:55:50.756Z,36.76
2022-07-27T10:58:43.881Z,35.85
2022-07-27T11:01:16.842Z,36.19
2022-07-27T11:03:55.942Z,36.74
2022-07-27T11:06:37.652Z,36.35
2022-07-27T11:12:04.780Z,36.76
2022-07-27T11:14:32.594Z,35.24
2022-07-27T11:19:54.816Z,35.71
2022-07-27T11:23:03.130Z,36.10
2022-07-27T11:25:21.673Z,36.17
2022-07-27T11:30:25.609Z,36.67
2022-07-27T11:32:55.907Z,36.86
2022-07-27T11:35:24.937Z,36.86
2022-07-27T11:38:01.452Z,37.35
2022-07-27T11:43:33.488Z,36.33
2022-07-27T11:46:16.396Z,36.11
2022-07-27T11:49:06.536Z,34.44
2022-07-27T11:51:36.256Z,35.25
2022-07-27T11:54:06.276Z,33.96
2022-07-27T11:56:35.949Z,34.05
2022-07-27T11:59:11.278Z,34.21
2022-07-27T12:01:41.415Z,33.81
2022-07-27T12:04:25.478Z,33.80
2022-07-27T12:07:03.708Z,35.10
2022-07-27T12:09:33.554Z,35.34
2022-07-27T12:12:12.437Z,35.73
2022-07-27T12:14:42.416Z,35.78
2022-07-27T12:17:19.371Z,35.88
2022-07-27T12:19:58.308Z,36.09
2022-07-27T12:22:27.828Z,35.71
2022-07-27T12:24:56.511Z,36.36
2022-07-27T12:27:26.219Z,35.97
2022-07-27T12:30:11.275Z,36.65
2022-07-27T12:32:42.033Z,36.07
2022-07-27T12:35:26.685Z,36.35
2022-07-27T12:37:58.761Z,37.02
2022-07-27T12:40:26.382Z,36.33
2022-07-27T12:42:59.832Z,35.85
2022-07-27T12:45:32.519Z,35.61
2022-07-27T12:48:08.730Z,35.66
2022-07-27T12:50:38.502Z,34.78
2022-07-27T12:53:06.586Z,35.28
2022-07-27T12:55:34.890Z,35.37
2022-07-27T12:58:02.691Z,34.51
2022-07-27T13:00:34.071Z,34.49
2022-07-27T13:03:03.355Z,34.47
2022-07-27T13:05:31.986Z,34.01
2022-07-27T13:08:03.239Z,34.19
2022-07-27T13:10:31.191Z,33.71
2022-07-27T13:12:59.326Z,34.39
2022-07-27T13:15:27.756Z,34.14
2022-07-27T13:17:55.567Z,34.38
2022-07-27T13:20:23.667Z,34.20
2022-07-27T13:22:53.011Z,34.74
2022-07-27T13:25:22.214Z,34.42
2022-07-27T13:27:50.592Z,34.74
2022-07-27T13:30:19.491Z,35.36
2022-07-27T13:32:47.954Z,34.33
2022-07-27T13:35:16.831Z,34.51
2022-07-27T13:37:46.009Z,35.17
2022-07-27T13:40:15.146Z,35.09
2022-07-27T13:42:44.644Z,35.57
2022-07-27T13:45:12.728Z,35.62
2022-07-27T13:47:41.767Z,35.16
2022-07-27T13:50:17.805Z,33.07
2022-07-27T13:52:46.762Z,33.79
2022-07-27T13:55:15.394Z,33.04
2022-07-27T13:57:45.134Z,33.13
2022-07-27T14:00:14.019Z,32.59
2022-07-27T14:02:42.164Z,32.97
2022-07-27T14:05:13.179Z,32.53
2022-07-27T14:07:42.927Z,32.48
2022-07-27T14:10:30.550Z,33.00
2022-07-27T14:13:07.749Z,32.75
2022-07-27T14:15:50.628Z,33.10
2022-07-27T14:18:22.285Z,32.57
2022-07-27T14:20:50.249Z,32.26
2022-07-27T14:23:18.049Z,33.11
2022-07-27T14:25:46.483Z,34.17
2022-07-27T14:28:16.066Z,33.43
2022-07-27T14:30:43.892Z,33.46
2022-07-27T14:33:11.672Z,33.96
2022-07-27T14:35:41.125Z,33.21
2022-07-27T14:38:09.302Z,34.59
2022-07-27T14:40:37.189Z,34.68
2022-07-27T14:43:05.482Z,34.40
2022-07-27T14:45:44.448Z,35.02
2022-07-27T14:48:21.037Z,34.77
2022-07-27T14:50:50.965Z,35.35
2022-07-27T14:53:18.832Z,35.64
2022-07-27T14:55:46.686Z,35.52
2022-07-27T14:58:14.512Z,35.00
2022-07-27T15:00:43.737Z,35.00
2022-07-27T15:03:14.682Z,35.18
2022-07-27T15:05:50.577Z,35.18
2022-07-27T15:08:19.394Z,35.19
2022-07-27T15:10:47.437Z,35.58
2022-07-27T15:13:18.360Z,35.15
2022-07-27T15:15:48.728Z,35.72
2022-07-27T15:18:19.289Z,35.77
2022-07-27T15:20:47.217Z,35.18
2022-07-27T15:23:14.968Z,34.68
2022-07-27T15:25:42.702Z,34.42
2022-07-27T15:28:10.800Z,34.30
2022-07-27T15:30:39.051Z,34.68
2022-07-27T15:33:08.707Z,33.63
2022-07-27T15:35:36.654Z,34.05
2022-07-27T15:38:04.949Z,34.07
2022-07-27T15:40:38.948Z,34.29
2022-07-27T15:43:10.704Z,33.87
2022-07-27T15:45:39.345Z,33.99
2022-07-27T15:48:10.435Z,33.85
2022-07-27T15:50:42.473Z,33.72
2022-07-27T15:53:12.011Z,34.13
2022-07-27T15:58:08.016Z,34.26
2022-07-27T16:00:40.496Z,35.17
2022-07-27T16:03:10.787Z,34.81
2022-07-27T16:05:39.056Z,34.96
2022-07-27T16:08:09.588Z,34.76
2022-07-27T16:10:37.786Z,35.27
2022-07-27T16:13:06.027Z,35.30
2022-07-27T16:15:51.982Z,34.52
2022-07-27T16:18:21.495Z,34.89
2022-07-27T16:20:49.324Z,34.38
2022-07-27T16:23:21.623Z,34.06
2022-07-27T16:26:08.193Z,34.02
2022-07-27T16:28:39.708Z,33.26
2022-07-27T16:31:10.351Z,33.78
2022-07-27T16:33:39.914Z,34.09
2022-07-27T16:36:08.845Z,33.94
2022-07-27T16:38:37.215Z,33.26
2022-07-27T16:41:07.302Z,33.09
2022-07-27T16:43:38.615Z,32.70
2022-07-27T16:46:08.495Z,32.94
2022-07-27T16:48:41.706Z,33.49
2022-07-27T16:51:12.297Z,33.25
2022-07-27T16:53:41.227Z,33.30
2022-07-27T16:56:09.864Z,33.62
2022-07-27T16:58:38.071Z,34.10
2022-07-27T17:01:06.375Z,33.95
2022-07-27T17:03:34.151Z,33.01
2022-07-27T17:06:06.095Z,33.41
2022-07-27T17:08:39.007Z,32.90
2022-07-27T17:11:06.956Z,33.25
2022-07-27T17:13:37.139Z,33.38
2022-07-27T17:16:06.467Z,33.20
2022-07-27T17:18:39.905Z,33.15
2022-07-27T17:21:09.372Z,33.27
2022-07-27T17:23:39.719Z,33.76
2022-07-27T17:26:10.796Z,33.78
2022-07-27T17:28:40.325Z,33.79
2022-07-27T17:31:10.338Z,33.56
2022-07-27T17:33:38.558Z,34.15
2022-07-27T17:36:12.307Z,34.33
2022-07-27T17:38:43.847Z,34.53
2022-07-27T17:41:11.702Z,34.88
2022-07-27T17:43:39.543Z,35.59
2022-07-27T17:46:08.112Z,36.03
2022-07-27T17:48:36.241Z,36.39
2022-07-27T17:51:04.706Z,36.42
2022-07-27T17:53:32.518Z,36.44
2022-07-27T17:56:02.701Z,36.21
2022-07-27T17:58:30.819Z,36.30
2022-07-27T18:00:58.873Z,36.36
2022-07-27T18:03:26.746Z,36.66
2022-07-27T18:05:54.930Z,36.89
2022-07-27T18:08:25.529Z,37.04
2022-07-27T18:10:53.281Z,37.09
2022-07-27T18:13:22.405Z,37.21
2022-07-27T18:15:50.586Z,37.34
2022-07-27T18:18:22.034Z,37.58
2022-07-27T18:20:58.536Z,38.12
2022-07-27T18:23:26.825Z,38.34
2022-07-27T18:25:55.024Z,38.38
2022-07-27T18:28:24.767Z,38.91
2022-07-27T18:30:53.937Z,39.24
2022-07-27T18:33:22.534Z,39.31
2022-07-27T18:35:50.290Z,39.46
2022-07-27T18:38:19.027Z,39.97
2022-07-27T18:40:48.788Z,40.15
2022-07-27T18:43:16.826Z,40.54
2022-07-27T18:45:46.018Z,40.95
2022-07-27T18:48:13.838Z,41.28
2022-07-27T18:50:41.833Z,41.72
2022-07-27T18:53:10.168Z,41.85
2022-07-27T18:55:38.719Z,42.19
2022-07-27T18:58:07.006Z,42.66
2022-07-27T19:00:35.039Z,42.72
2022-07-27T19:03:04.425Z,42.96
2022-07-27T19:05:41.692Z,43.18
2022-07-27T19:08:12.993Z,43.66
2022-07-27T19:10:42.016Z,43.72
2022-07-27T19:13:10.446Z,43.81
2022-07-27T19:15:38.370Z,44.07
2022-07-27T19:18:10.397Z,44.17
2022-07-27T19:20:38.596Z,44.14
2022-07-27T19:23:06.621Z,44.22
2022-07-27T19:25:34.788Z,44.48
2022-07-27T19:28:03.167Z,44.63
2022-07-27T19:30:31.164Z,44.61
2022-07-27T19:32:59.021Z,44.66
2022-07-27T19:35:28.255Z,44.63
2022-07-27T19:37:56.059Z,44.84
2022-07-27T19:43:13.608Z,45.14
2022-07-27T19:45:43.541Z,45.36
2022-07-27T19:48:11.387Z,45.36
2022-07-27T19:50:41.186Z,45.55
2022-07-27T19:53:09.541Z,45.78
2022-07-27T19:55:37.427Z,45.60
2022-07-27T19:58:05.301Z,46.09
2022-07-27T20:00:33.151Z,46.00
2022-07-27T20:03:01.749Z,46.06
2022-07-27T20:05:29.692Z,46.30
2022-07-27T20:07:58.869Z,46.43
2022-07-27T20:10:27.026Z,46.26
2022-07-27T20:12:54.933Z,46.36
2022-07-27T20:15:22.822Z,46.46
2022-07-27T20:17:50.869Z,46.77
2022-07-27T20:20:18.669Z,46.84
2022-07-27T20:22:46.693Z,46.88
2022-07-27T20:25:16.391Z,46.84
2022-07-27T20:27:44.271Z,47.00
2022-07-27T20:30:17.446Z,47.36
2022-07-27T20:32:46.268Z,47.75
2022-07-27T20:35:14.560Z,47.82
2022-07-27T20:37:42.466Z,47.86
2022-07-27T20:40:11.813Z,47.82
2022-07-27T20:42:41.548Z,47.86
2022-07-27T20:45:11.515Z,48.11
2022-07-27T20:47:39.813Z,48.10
2022-07-27T20:50:09.289Z,48.06
2022-07-27T20:52:37.146Z,48.29
2022-07-27T20:55:05.595Z,48.39
2022-07-27T20:57:33.431Z,48.53
2022-07-27T21:00:02.603Z,48.50
2022-07-27T21:02:30.448Z,48.68
2022-07-27T21:04:59.373Z,48.60
2022-07-27T21:07:28.064Z,48.74
2022-07-27T21:09:55.834Z,49.04
2022-07-27T21:12:23.594Z,49.58
2022-07-27T21:14:51.416Z,49.39
2022-07-27T21:17:20.609Z,49.31
2022-07-27T21:19:48.369Z,49.70
2022-07-27T21:22:16.215Z,49.88
2022-07-27T21:24:42.987Z,49.84
2022-07-27T21:27:12.619Z,50.50
2022-07-27T21:29:41.030Z,50.55
2022-07-27T21:32:08.922Z,50.67
2022-07-27T21:34:38.093Z,50.73
2022-07-27T21:37:05.897Z,50.77
2022-07-27T21:39:33.648Z,51.32
2022-07-27T21:42:02.389Z,51.49
2022-07-27T21:44:30.561Z,51.75
2022-07-27T21:46:58.370Z,51.52
2022-07-27T21:49:29.851Z,51.65
2022-07-27T21:52:03.877Z,51.58
2022-07-27T21:54:31.688Z,51.91
2022-07-27T21:56:59.464Z,52.24
2022-07-27T21:59:27.268Z,52.45
2022-07-27T22:01:55.006Z,52.80
2022-07-27T22:04:23.200Z,52.65
2022-07-27T22:06:51.032Z,52.69
2022-07-27T22:09:21.077Z,52.82
2022-07-27T22:11:48.920Z,52.59
2022-07-27T22:14:17.408Z,52.57
2022-07-27T22:16:45.553Z,52.53
2022-07-27T22:19:14.132Z,52.83
2022-07-27T22:21:41.848Z,53.26
2022-07-27T22:24:09.798Z,53.05
2022-07-27T22:26:39.085Z,53.60
2022-07-27T22:29:06.946Z,53.40
2022-07-27T22:31:34.787Z,53.46
2022-07-27T22:34:02.601Z,53.41
2022-07-27T22:36:30.424Z,53.60
2022-07-27T22:38:58.179Z,53.68
2022-07-27T22:41:25.950Z,53.82
2022-07-27T22:43:55.134Z,53.78
2022-07-27T22:46:25.779Z,53.59
2022-07-27T22:48:53.902Z,53.88
2022-07-27T22:51:21.813Z,53.67
2022-07-27T22:53:49.605Z,53.43
2022-07-27T22:56:17.407Z,53.46
2022-07-27T22:58:45.269Z,53.74
2022-07-27T23:01:21.597Z,53.32
2022-07-27T23:04:02.410Z,53.31
2022-07-27T23:06:30.157Z,53.60
2022-07-27T23:08:57.966Z,53.68
2022-07-27T23:11:25.714Z,53.74
2022-07-27T23:13:53.484Z,53.94
2022-07-27T23:16:22.674Z,53.89
2022-07-27T23:18:50.432Z,53.88
2022-07-27T23:21:18.318Z,54.20
2022-07-27T23:23:53.419Z,54.35
2022-07-27T23:26:25.838Z,54.39
2022-07-27T23:28:56.574Z,54.19
2022-07-27T23:31:26.128Z,54.04
2022-07-27T23:33:53.981Z,54.51
2022-07-27T23:36:21.756Z,54.32
2022-07-27T23:38:49.586Z,54.41
2022-07-27T23:41:17.405Z,54.15
2022-07-27T23:43:45.512Z,54.30
2022-07-27T23:46:13.351Z,54.03
2022-07-27T23:48:42.772Z,54.09
2022-07-27T23:51:10.644Z,54.10
2022-07-27T23:53:38.378Z,54.23
2022-07-27T23:56:06.583Z,54.19
2022-07-27T23:58:34.344Z,54.08
